Time;durP1;ratioP1;P1;durP2;ratioP2;P2;SDS_P1;SDS_P2;PMS_P1;PMS_P2;Temp;Humidity;BMP_temperature;BMP_pressure;BME280_temperature;BME280_humidity;BME280_pressure;Samples;Min_cycle;Max_cycle;Signal;HPM_P1;HPM_P2
2022/11/30 00:00:37;;;;;;;37.80;9.55;;;5.30;99.90;;;;;;5042679;28;20043;-65
2022/11/30 00:03:03;;;;;;;40.63;9.98;;;5.10;99.90;;;;;;5036385;28;20116;-65
2022/11/30 00:05:29;;;;;;;101.53;11.40;;;5.20;99.90;;;;;;5032239;28;20033;-65
2022/11/30 00:07:55;;;;;;;56.55;9.75;;;5.10;99.90;;;;;;5036014;28;20514;-65
2022/11/30 00:10:21;;;;;;;201.98;14.82;;;5.10;99.90;;;;;;5045445;28;20045;-65
2022/11/30 00:12:47;;;;;;;99.30;11.25;;;4.90;99.90;;;;;;5032680;28;20120;-65
2022/11/30 00:15:15;;;;;;;124.85;11.15;;;5.10;99.90;;;;;;5032237;28;20108;-65
2022/11/30 00:17:41;;;;;;;75.95;8.80;;;4.90;99.90;;;;;;5033413;28;20107;-65
2022/11/30 00:20:07;;;;;;;60.50;8.50;;;4.90;99.90;;;;;;5033711;28;20491;-65
2022/11/30 00:22:33;;;;;;;111.70;10.35;;;4.80;99.90;;;;;;5033889;28;20509;-65
2022/11/30 00:24:59;;;;;;;67.95;8.93;;;4.70;99.90;;;;;;5033176;28;20116;-65
2022/11/30 00:27:28;;;;;;;41.40;7.93;;;4.60;99.90;;;;;;5033640;28;20046;-65
2022/11/30 00:29:54;;;;;;;85.50;10.32;;;;;;;;;;5033666;28;20068;-65
2022/11/30 00:32:20;;;;;;;75.43;9.77;;;;;;;;;;5032043;28;20041;-65
2022/11/30 00:34:46;;;;;;;46.97;9.18;;;4.60;99.90;;;;;;5033551;28;20037;-65
2022/11/30 00:37:11;;;;;;;23.33;8.63;;;4.50;99.90;;;;;;5033210;28;20087;-65
2022/11/30 00:39:37;;;;;;;74.75;10.35;;;4.50;99.90;;;;;;5015833;28;20049;-65
2022/11/30 00:42:03;;;;;;;62.45;9.77;;;4.60;99.90;;;;;;5048656;28;20041;-65
2022/11/30 00:44:28;;;;;;;54.58;9.07;;;4.60;99.90;;;;;;5032075;28;20045;-65
2022/11/30 00:46:54;;;;;;;38.80;9.25;;;4.60;99.90;;;;;;5047720;28;20060;-65
2022/11/30 00:49:19;;;;;;;62.78;9.52;;;4.40;99.90;;;;;;5052890;28;20116;-65
2022/11/30 00:51:45;;;;;;;80.38;10.05;;;4.40;99.90;;;;;;5053208;28;20126;-65
2022/11/30 00:54:10;;;;;;;49.05;9.27;;;4.40;99.90;;;;;;5051595;28;20041;-65
2022/11/30 00:56:36;;;;;;;134.32;13.18;;;4.30;99.90;;;;;;5052063;28;20116;-65
2022/11/30 00:59:01;;;;;;;134.63;12.90;;;4.30;99.90;;;;;;5052961;28;20107;-65
2022/11/30 01:01:27;;;;;;;76.43;11.25;;;4.20;99.90;;;;;;5043143;28;20095;-65
2022/11/30 01:03:53;;;;;;;71.68;11.05;;;4.20;99.90;;;;;;5043574;28;20037;-64
2022/11/30 01:06:18;;;;;;;88.50;11.65;;;4.20;99.90;;;;;;5039666;28;20127;-65
2022/11/30 01:08:44;;;;;;;46.28;9.20;;;4.20;99.90;;;;;;5051749;28;20043;-64
2022/11/30 01:11:24;;;;;;;70.85;10.85;;;4.20;99.90;;;;;;5043894;28;20510;-65
2022/11/30 01:13:51;;;;;;;66.47;10.55;;;4.20;99.90;;;;;;5044383;28;20041;-65
2022/11/30 01:16:26;;;;;;;42.65;9.07;;;4.20;99.90;;;;;;5032442;28;20503;-65
2022/11/30 01:18:52;;;;;;;;;;;4.40;99.90;;;;;;5033591;28;20045;-65
2022/11/30 01:21:20;;;;;;;15.65;9.07;;;4.30;99.90;;;;;;5051170;28;19970;-64
2022/11/30 01:23:47;;;;;;;21.08;9.43;;;4.30;99.90;;;;;;5042278;28;20042;-65
2022/11/30 01:26:13;;;;;;;28.48;11.10;;;4.40;99.90;;;;;;5034281;28;20041;-65
2022/11/30 01:28:45;;;;;;;17.55;9.60;;;4.30;99.90;;;;;;5051723;28;20096;-65
2022/11/30 01:31:12;;;;;;;14.13;10.07;;;4.60;99.90;;;;;;5041321;28;20048;-65
2022/11/30 01:33:39;;;;;;;13.27;10.88;;;;;;;;;;5035755;28;20523;-64
2022/11/30 01:36:06;;;;;;;12.35;9.65;;;4.70;99.90;;;;;;5050843;28;20048;-65
2022/11/30 01:38:40;;;;;;;13.63;10.18;;;4.70;99.90;;;;;;5035747;28;20041;-65
2022/11/30 01:41:07;;;;;;;17.75;11.88;;;4.70;99.90;;;;;;5036789;28;20034;-65
2022/11/30 01:43:55;;;;;;;17.30;12.27;;;4.80;99.90;;;;;;5054518;28;20041;-64
2022/11/30 01:46:31;;;;;;;18.27;11.93;;;4.80;99.90;;;;;;5045811;28;20132;-65
2022/11/30 01:49:06;;;;;;;19.48;13.25;;;4.80;99.90;;;;;;5056707;28;20048;-64
2022/11/30 01:51:44;;;;;;;21.23;14.48;;;4.90;99.90;;;;;;5056508;28;20064;-65
2022/11/30 01:54:13;;;;;;;21.23;13.40;;;4.90;99.90;;;;;;5037764;28;20026;-65
2022/11/30 01:56:45;;;;;;;23.15;14.35;;;5.00;99.90;;;;;;5036491;28;20045;-64
2022/11/30 01:59:12;;;;;;;20.25;13.40;;;5.00;99.90;;;;;;5054823;28;20044;-65
2022/11/30 02:01:37;;;;;;;24.60;14.98;;;5.10;99.90;;;;;;5056559;28;20048;-65
2022/11/30 02:04:19;;;;;;;22.35;14.88;;;5.10;99.90;;;;;;5038929;28;20045;-64
2022/11/30 02:06:46;;;;;;;24.63;14.70;;;5.20;99.90;;;;;;5034873;28;20065;-65
2022/11/30 02:09:13;;;;;;;22.45;15.05;;;5.20;99.90;;;;;;5044570;28;20041;-64
2022/11/30 02:11:39;;;;;;;20.75;14.02;;;5.00;99.90;;;;;;5036158;28;20094;-65
2022/11/30 02:14:29;;;;;;;20.42;13.73;;;5.30;99.90;;;;;;5050367;28;20119;-65
2022/11/30 02:17:13;;;;;;;21.70;14.68;;;5.40;99.90;;;;;;5035184;28;20060;-65
2022/11/30 02:20:05;;;;;;;20.58;13.98;;;5.50;99.90;;;;;;5034845;28;20073;-64
2022/11/30 02:22:51;;;;;;;19.92;14.27;;;5.40;99.90;;;;;;5034835;28;20483;-65
2022/11/30 02:25:26;;;;;;;26.77;15.55;;;5.40;99.90;;;;;;5035770;28;20052;-65
2022/11/30 02:28:11;;;;;;;25.33;16.27;;;;;;;;;;5035880;28;20045;-65
2022/11/30 02:30:41;;;;;;;32.72;16.73;;;5.50;99.90;;;;;;5035873;28;20051;-65
2022/11/30 02:33:12;;;;;;;24.10;15.30;;;5.50;99.90;;;;;;5035948;28;20038;-65
2022/11/30 02:35:41;;;;;;;22.40;14.45;;;5.30;99.90;;;;;;5035635;28;20100;-64
2022/11/30 02:38:08;;;;;;;20.73;13.98;;;5.50;99.90;;;;;;5038500;28;20038;-65
2022/11/30 02:40:34;;;;;;;19.83;13.68;;;5.60;99.90;;;;;;5055697;28;20045;-65
2022/11/30 02:43:03;;;;;;;26.70;14.55;;;5.50;99.90;;;;;;5054496;28;20103;-65
2022/11/30 02:45:47;;;;;;;21.80;13.90;;;5.40;99.90;;;;;;5052770;28;20073;-65
2022/11/30 02:48:17;;;;;;;24.87;16.70;;;5.40;99.90;;;;;;5055323;28;20052;-65
2022/11/30 02:51:11;;;;;;;27.85;16.90;;;5.50;99.90;;;;;;5055505;28;20120;-65
2022/11/30 02:53:37;;;;;;;19.70;13.73;;;5.50;99.90;;;;;;5052459;28;20377;-65
2022/11/30 02:56:03;;;;;;;27.88;15.65;;;5.50;99.90;;;;;;5047876;28;20099;-65
2022/11/30 02:58:29;;;;;;;22.40;14.02;;;5.30;99.90;;;;;;5037646;28;20095;-65
2022/11/30 03:00:54;;;;;;;163.05;20.17;;;5.60;99.90;;;;;;5036551;28;20079;-65
2022/11/30 03:03:20;;;;;;;27.02;14.45;;;5.50;99.90;;;;;;5035306;28;20054;-65
2022/11/30 03:05:46;;;;;;;21.17;13.25;;;5.30;99.90;;;;;;5037385;28;20404;-64
2022/11/30 03:08:11;;;;;;;21.10;13.75;;;5.30;99.90;;;;;;5055133;28;20086;-65
2022/11/30 03:10:37;;;;;;;22.80;14.30;;;5.30;99.90;;;;;;5041016;28;20510;-65
2022/11/30 03:13:03;;;;;;;20.73;13.75;;;5.30;99.90;;;;;;5053663;28;20064;-65
2022/11/30 03:15:28;;;;;;;24.63;14.80;;;5.30;99.90;;;;;;5054809;28;20064;-65
2022/11/30 03:17:54;;;;;;;21.70;12.93;;;5.20;99.90;;;;;;5050646;28;20252;-65
2022/11/30 03:20:19;;;;;;;26.52;14.63;;;5.20;99.90;;;;;;5034950;28;20503;-65
2022/11/30 03:22:45;;;;;;;27.20;13.00;;;5.10;99.90;;;;;;5034742;28;20068;-65
2022/11/30 03:25:10;;;;;;;25.70;12.05;;;4.80;99.90;;;;;;5043030;28;20051;-65
2022/11/30 03:27:36;;;;;;;53.53;12.82;;;4.80;99.90;;;;;;5054804;28;20032;-64
2022/11/30 03:30:02;;;;;;;74.43;10.02;;;4.80;99.90;;;;;;5044543;28;20037;-65
2022/11/30 03:32:29;;;;;;;41.75;8.60;;;4.90;99.90;;;;;;5054428;28;20064;-64
2022/11/30 03:34:55;;;;;;;119.45;12.20;;;4.80;99.90;;;;;;5053048;28;20047;-65
2022/11/30 03:37:21;;;;;;;24.10;7.38;;;4.70;99.90;;;;;;5044138;28;20041;-65
2022/11/30 03:39:46;;;;;;;176.70;14.38;;;4.60;99.90;;;;;;5033219;28;20084;-65
2022/11/30 03:42:12;;;;;;;132.32;11.93;;;4.50;99.90;;;;;;5042747;28;20087;-64
2022/11/30 03:44:37;;;;;;;77.35;11.25;;;4.40;99.90;;;;;;5050196;28;20041;-65
2022/11/30 03:47:03;;;;;;;80.60;11.65;;;4.50;99.90;;;;;;5033988;28;20380;-65
2022/11/30 03:49:29;;;;;;;82.18;12.45;;;4.40;99.90;;;;;;5034316;28;20050;-65
2022/11/30 03:51:54;;;;;;;28.90;8.70;;;4.30;99.90;;;;;;5033973;28;20491;-65
2022/11/30 03:54:20;;;;;;;26.77;7.10;;;4.30;99.90;;;;;;5034385;28;20548;-65
2022/11/30 03:56:46;;;;;;;20.33;6.47;;;4.30;99.90;;;;;;5042464;28;20037;-65
2022/11/30 03:59:12;;;;;;;54.00;8.05;;;;;;;;;;5052649;28;20431;-64
2022/11/30 04:01:39;;;;;;;50.45;8.25;;;4.20;99.90;;;;;;5046985;28;20148;-64
2022/11/30 04:04:06;;;;;;;30.63;7.50;;;4.30;99.90;;;;;;5034218;28;20041;-65
2022/11/30 04:06:32;;;;;;;60.55;10.25;;;4.20;99.90;;;;;;5033953;28;20037;-65
2022/11/30 04:08:57;;;;;;;21.55;7.93;;;4.20;99.90;;;;;;5034021;28;20041;-65
2022/11/30 04:11:23;;;;;;;74.57;10.27;;;4.30;99.90;;;;;;5034480;28;20128;-65
2022/11/30 04:13:48;;;;;;;98.60;11.15;;;4.20;99.90;;;;;;5053743;28;20399;-65
2022/11/30 04:16:14;;;;;;;66.95;10.43;;;4.20;99.90;;;;;;5052180;28;20037;-64
2022/11/30 04:18:40;;;;;;;61.22;9.23;;;4.10;99.90;;;;;;5052292;28;20037;-65
2022/11/30 04:21:06;;;;;;;41.38;7.35;;;4.20;99.90;;;;;;5053712;28;20037;-65
2022/11/30 04:23:35;;;;;;;15.38;7.38;;;4.10;99.90;;;;;;5052476;28;20044;-65
2022/11/30 04:26:04;;;;;;;28.35;9.30;;;;;;;;;;5053656;28;20036;-65
2022/11/30 04:28:30;;;;;;;37.22;9.13;;;4.30;99.90;;;;;;5039438;28;20450;-64
2022/11/30 04:30:56;;;;;;;179.68;14.00;;;4.30;99.90;;;;;;5043499;28;20041;-65
2022/11/30 04:33:22;;;;;;;30.92;10.20;;;4.30;99.90;;;;;;5047543;28;20028;-65
2022/11/30 04:35:52;;;;;;;74.82;12.73;;;4.30;99.90;;;;;;5033670;28;20044;-65
2022/11/30 04:38:18;;;;;;;77.97;11.07;;;4.30;99.90;;;;;;5032501;28;20052;-65
2022/11/30 04:40:44;;;;;;;45.70;11.32;;;4.30;99.90;;;;;;5047434;28;20033;-65
2022/11/30 04:43:10;;;;;;;76.72;11.10;;;4.30;99.90;;;;;;5044616;28;20037;-65
2022/11/30 04:45:37;;;;;;;64.53;11.35;;;4.30;99.90;;;;;;5051936;28;20060;-65
2022/11/30 04:48:03;;;;;;;60.65;12.23;;;4.30;99.90;;;;;;5051729;28;20060;-65
2022/11/30 04:50:28;;;;;;;21.05;9.73;;;4.40;99.90;;;;;;5053009;28;20060;-65
2022/11/30 04:52:55;;;;;;;73.47;13.50;;;4.40;99.90;;;;;;5052152;28;20037;-65
2022/11/30 04:55:20;;;;;;;52.03;11.82;;;4.50;99.90;;;;;;5053301;28;20130;-64
2022/11/30 04:57:46;;;;;;;13.82;9.98;;;4.40;99.90;;;;;;5039173;28;20091;-64
2022/11/30 05:00:14;;;;;;;15.52;10.95;;;4.60;99.90;;;;;;5051869;28;20049;-65
2022/11/30 05:02:40;;;;;;;14.13;10.73;;;4.60;99.90;;;;;;5052860;28;20041;-65
2022/11/30 05:05:06;;;;;;;13.77;9.95;;;4.60;99.90;;;;;;5052201;28;20044;-65
2022/11/30 05:07:32;;;;;;;16.52;10.75;;;4.70;99.90;;;;;;5052726;28;20037;-65
2022/11/30 05:09:57;;;;;;;14.77;10.75;;;4.70;99.90;;;;;;5042612;28;20384;-65
2022/11/30 05:12:23;;;;;;;14.82;10.48;;;;;;;;;;5038664;28;20048;-64
2022/11/30 05:14:49;;;;;;;13.95;10.27;;;4.70;99.90;;;;;;5051965;28;20041;-65
2022/11/30 05:17:15;;;;;;;17.77;11.02;;;4.80;99.90;;;;;;5052985;28;20041;-65
2022/11/30 05:19:40;;;;;;;17.95;12.27;;;4.70;99.90;;;;;;5051377;28;20040;-65
2022/11/30 05:22:06;;;;;;;20.35;12.60;;;4.80;99.90;;;;;;5052828;28;20143;-65
2022/11/30 05:24:31;;;;;;;16.40;10.90;;;4.80;99.90;;;;;;5051277;28;20546;-65
2022/11/30 05:26:57;;;;;;;16.33;11.52;;;4.90;99.90;;;;;;5045776;28;20436;-65
2022/11/30 05:29:23;;;;;;;16.60;11.52;;;4.80;99.90;;;;;;5045730;28;20486;-65
2022/11/30 05:31:49;;;;;;;15.13;11.77;;;4.90;99.90;;;;;;5052595;28;20033;-65
2022/11/30 05:34:14;;;;;;;17.15;10.65;;;4.90;99.90;;;;;;5052800;28;20445;-65
2022/11/30 05:36:40;;;;;;;15.98;10.15;;;4.90;99.90;;;;;;5052537;28;20036;-65
2022/11/30 05:39:06;;;;;;;16.30;11.20;;;4.90;99.90;;;;;;5052797;28;20040;-65
2022/11/30 05:41:31;;;;;;;17.88;11.05;;;4.90;99.90;;;;;;5050731;28;20128;-64
2022/11/30 05:43:57;;;;;;;18.05;11.05;;;5.00;99.90;;;;;;5039257;28;20526;-64
2022/11/30 05:46:22;;;;;;;18.90;11.50;;;4.70;99.90;;;;;;5051082;28;20507;-65
2022/11/30 05:48:48;;;;;;;20.38;11.85;;;5.00;99.90;;;;;;5050019;28;20523;-65
2022/11/30 05:51:16;;;;;;;22.00;12.73;;;5.00;99.90;;;;;;5032546;28;20045;-65
2022/11/30 05:53:43;;;;;;;20.58;13.60;;;5.00;99.90;;;;;;5045695;28;20048;-65
2022/11/30 05:56:12;;;;;;;22.55;12.48;;;5.00;99.90;;;;;;5052174;28;20045;-65
2022/11/30 05:58:38;;;;;;;20.95;12.70;;;5.00;99.90;;;;;;5051358;28;20102;-65
2022/11/30 06:01:04;;;;;;;18.73;12.15;;;5.10;99.90;;;;;;5052474;28;20037;-65
2022/11/30 06:03:32;;;;;;;20.45;12.60;;;4.80;99.90;;;;;;5052486;28;20043;-65
2022/11/30 06:05:57;;;;;;;18.63;11.77;;;5.10;99.90;;;;;;5052357;28;20095;-65
2022/11/30 06:08:26;;;;;;;18.27;12.27;;;5.10;99.90;;;;;;5046429;28;20045;-65
2022/11/30 06:10:52;;;;;;;21.10;12.00;;;5.10;99.90;;;;;;5044919;28;20041;-64
2022/11/30 06:13:18;;;;;;;20.05;12.32;;;5.20;99.90;;;;;;5038649;28;20087;-65
2022/11/30 06:15:43;;;;;;;21.23;12.88;;;5.30;99.90;;;;;;5052663;28;20097;-65
2022/11/30 06:18:11;;;;;;;22.33;13.38;;;5.20;99.90;;;;;;5056043;28;20433;-65
2022/11/30 06:20:37;;;;;;;24.02;13.93;;;5.10;99.90;;;;;;5054913;28;20056;-65
2022/11/30 06:23:02;;;;;;;17.38;12.10;;;5.20;99.90;;;;;;5055841;28;20487;-65
2022/11/30 06:25:28;;;;;;;24.20;14.65;;;5.20;99.90;;;;;;5054485;28;20064;-65
2022/11/30 06:27:53;;;;;;;22.73;13.43;;;5.20;99.90;;;;;;5055596;28;20048;-65
2022/11/30 06:30:19;;;;;;;20.65;12.30;;;5.50;99.90;;;;;;5056062;28;20041;-65
2022/11/30 06:32:46;;;;;;;24.83;13.25;;;5.10;99.90;;;;;;5055751;28;20112;-65
2022/11/30 06:35:12;;;;;;;22.33;13.77;;;5.20;99.90;;;;;;5049467;28;20045;-65
2022/11/30 06:37:38;;;;;;;22.48;13.63;;;5.30;99.90;;;;;;5046827;28;20049;-65
2022/11/30 06:40:05;;;;;;;23.27;13.57;;;5.40;99.90;;;;;;5054437;28;20139;-65
2022/11/30 06:42:30;;;;;;;24.75;14.15;;;5.40;99.90;;;;;;5055375;28;20037;-65
2022/11/30 06:44:56;;;;;;;30.20;15.68;;;5.30;99.90;;;;;;5054301;28;20037;-65
2022/11/30 06:47:22;;;;;;;29.45;17.23;;;5.30;99.90;;;;;;5055419;28;20056;-65
2022/11/30 06:49:47;;;;;;;26.05;15.35;;;5.30;99.90;;;;;;5042336;28;20042;-65
2022/11/30 06:52:13;;;;;;;38.92;17.08;;;5.30;99.90;;;;;;5053353;28;20037;-65
2022/11/30 06:54:38;;;;;;;26.15;16.05;;;5.30;99.90;;;;;;5042214;28;20091;-65
2022/11/30 06:57:04;;;;;;;26.17;15.07;;;5.40;99.90;;;;;;5055196;28;20037;-65
2022/11/30 06:59:29;;;;;;;31.80;17.17;;;5.40;99.90;;;;;;5050593;28;20064;-65
2022/11/30 07:01:55;;;;;;;32.92;17.42;;;5.40;99.90;;;;;;5035312;28;20111;-65
2022/11/30 07:04:20;;;;;;;32.95;18.00;;;5.50;99.90;;;;;;5035128;28;20180;-65
2022/11/30 07:06:46;;;;;;;28.95;17.50;;;5.50;99.90;;;;;;5042670;28;20082;-65
2022/11/30 07:09:12;;;;;;;29.98;18.08;;;5.60;99.90;;;;;;5042697;28;20407;-65
2022/11/30 07:11:38;;;;;;;39.72;20.55;;;5.50;99.90;;;;;;5034829;28;20048;-65
2022/11/30 07:14:04;;;;;;;44.05;22.45;;;5.60;99.90;;;;;;5033639;28;20080;-65
2022/11/30 07:16:29;;;;;;;45.30;22.65;;;5.60;99.90;;;;;;5034741;28;20076;-65
2022/11/30 07:18:55;;;;;;;46.05;21.60;;;5.60;99.90;;;;;;5017062;28;20037;-65
2022/11/30 07:21:20;;;;;;;47.33;23.98;;;5.70;99.90;;;;;;5033699;28;20052;-65
2022/11/30 07:26:30;;;;;;;44.60;23.20;;;5.70;99.90;;;;;;5032486;28;20077;-66
2022/11/30 07:28:59;;;;;;;46.70;21.17;;;5.80;99.90;;;;;;5033608;28;20064;-66
2022/11/30 07:31:27;;;;;;;41.35;20.85;;;5.70;99.90;;;;;;5044652;28;20399;-66
2022/11/30 07:33:53;;;;;;;40.88;22.00;;;5.80;99.90;;;;;;5050321;28;20048;-65
2022/11/30 07:36:21;;;;;;;49.30;24.85;;;5.90;99.90;;;;;;5051179;28;20116;-65
2022/11/30 07:38:47;;;;;;;43.45;22.27;;;;;;;;;;5049493;28;20167;-65
2022/11/30 07:41:13;;;;;;;50.10;23.40;;;5.90;99.90;;;;;;5051655;28;20063;-65
2022/11/30 07:43:39;;;;;;;44.92;23.40;;;;;;;;;;5050813;28;20498;-65
2022/11/30 07:46:05;;;;;;;45.20;22.23;;;5.80;99.90;;;;;;5032730;28;20124;-66
2022/11/30 07:48:32;;;;;;;41.53;22.05;;;6.10;99.90;;;;;;5035541;28;20052;-66
2022/11/30 07:51:27;;;;;;;48.75;23.98;;;5.80;99.90;;;;;;5035408;28;20041;-65
2022/11/30 07:53:57;;;;;;;51.63;24.75;;;6.00;99.90;;;;;;5031218;28;20126;-66
2022/11/30 07:56:23;;;;;;;43.10;24.58;;;6.00;99.90;;;;;;5052992;28;20118;-66
2022/11/30 07:58:52;;;;;;;52.75;24.67;;;6.00;99.90;;;;;;5054258;28;20083;-65
2022/11/30 08:01:21;;;;;;;49.33;24.42;;;6.00;99.90;;;;;;5047378;28;20132;-65
2022/11/30 08:03:47;;;;;;;51.55;26.00;;;6.00;99.90;;;;;;5039199;28;20045;-67
2022/11/30 08:06:15;;;;;;;59.10;25.88;;;6.00;99.90;;;;;;5035697;28;20087;-67
2022/11/30 08:08:43;;;;;;;53.03;25.80;;;5.80;99.90;;;;;;5040139;28;20040;-66
2022/11/30 08:11:11;;;;;;;60.58;26.58;;;6.00;99.90;;;;;;5035865;28;20049;-66
2022/11/30 08:13:37;;;;;;;57.58;25.52;;;6.20;99.90;;;;;;5032836;28;20077;-64
2022/11/30 08:16:05;;;;;;;59.47;27.08;;;5.90;99.90;;;;;;5034165;28;20499;-65
2022/11/30 08:18:30;;;;;;;58.17;27.20;;;6.20;99.90;;;;;;5032396;28;20503;-65
2022/11/30 08:21:01;;;;;;;58.20;25.60;;;6.10;99.90;;;;;;5033158;28;20044;-65
2022/11/30 08:23:31;;;;;;;58.65;27.15;;;6.20;99.90;;;;;;5036112;28;20037;-65
2022/11/30 08:26:05;;;;;;;54.08;24.17;;;6.30;99.90;;;;;;5041738;28;20085;-65
2022/11/30 08:28:34;;;;;;;55.55;23.73;;;6.30;99.90;;;;;;5037655;28;20086;-65
2022/11/30 08:31:02;;;;;;;54.72;25.38;;;6.30;99.90;;;;;;5032126;28;20054;-65
2022/11/30 08:33:29;;;;;;;56.75;25.83;;;6.20;99.90;;;;;;5033532;28;20133;-65
2022/11/30 08:36:11;;;;;;;51.30;24.75;;;6.30;99.90;;;;;;5038215;28;20029;-65
2022/11/30 08:38:37;;;;;;;62.35;25.08;;;6.30;99.90;;;;;;5033259;28;20040;-67
2022/11/30 08:41:04;;;;;;;58.80;25.67;;;6.10;99.90;;;;;;5039731;28;20038;-65
2022/11/30 08:43:30;;;;;;;51.13;23.40;;;6.30;99.90;;;;;;5042121;28;20051;-65
2022/11/30 08:45:56;;;;;;;53.97;24.25;;;6.40;99.90;;;;;;5033059;28;20116;-65
2022/11/30 08:48:22;;;;;;;56.90;23.38;;;6.40;99.90;;;;;;5031782;28;20550;-65
2022/11/30 08:50:48;;;;;;;50.20;23.45;;;6.40;99.90;;;;;;5033098;28;20128;-65
2022/11/30 08:53:14;;;;;;;52.05;23.80;;;;;;;;;;5042509;28;20069;-65
2022/11/30 08:55:39;;;;;;;50.20;21.58;;;6.20;99.90;;;;;;5052957;28;20055;-65
2022/11/30 08:58:05;;;;;;;48.80;23.63;;;6.40;99.90;;;;;;5051895;28;20048;-65
2022/11/30 09:00:31;;;;;;;45.30;21.08;;;6.40;99.90;;;;;;5039629;28;20087;-65
2022/11/30 09:02:57;;;;;;;53.83;22.30;;;;;;;;;;5038153;28;20051;-66
2022/11/30 09:05:22;;;;;;;48.85;22.92;;;6.50;99.90;;;;;;5036633;28;20052;-67
2022/11/30 09:07:48;;;;;;;48.83;23.00;;;6.50;99.90;;;;;;5035430;28;20183;-67
2022/11/30 09:10:13;;;;;;;50.13;22.55;;;6.50;99.90;;;;;;5034957;28;20051;-67
2022/11/30 09:12:40;;;;;;;57.88;24.38;;;6.40;99.90;;;;;;5037364;28;20069;-66
2022/11/30 09:15:07;;;;;;;49.85;22.25;;;;;;;;;;5037194;28;20064;-66
2022/11/30 09:17:33;;;;;;;47.65;22.05;;;;;;;;;;5034235;28;20034;-66
2022/11/30 09:19:59;;;;;;;46.83;23.48;;;6.50;99.90;;;;;;5031451;28;20415;-66
2022/11/30 09:22:25;;;;;;;47.83;23.73;;;6.60;99.90;;;;;;5032584;28;20052;-66
2022/11/30 09:24:51;;;;;;;47.85;22.70;;;6.50;99.90;;;;;;5044817;28;20043;-66
2022/11/30 09:27:16;;;;;;;46.03;21.92;;;6.70;99.90;;;;;;5038938;28;20037;-66
2022/11/30 09:29:42;;;;;;;45.55;21.67;;;6.70;99.90;;;;;;5042914;28;20040;-66
2022/11/30 09:32:08;;;;;;;38.97;21.40;;;;;;;;;;5049141;28;20091;-66
2022/11/30 09:34:33;;;;;;;48.85;23.98;;;6.50;99.90;;;;;;5049317;28;20048;-66
2022/11/30 09:36:59;;;;;;;46.15;22.55;;;;;;;;;;5048426;28;20036;-66
2022/11/30 09:39:25;;;;;;;43.80;21.10;;;6.60;99.90;;;;;;5041468;28;20385;-66
2022/11/30 09:42:37;;;;;;;40.42;20.67;;;6.70;99.90;;;;;;5034524;28;20069;-66
2022/11/30 09:45:28;;;;;;;45.53;20.92;;;6.60;99.90;;;;;;5029827;28;20049;-65
2022/11/30 09:48:23;;;;;;;42.63;20.58;;;;;;;;;;5040313;28;20085;-65
2022/11/30 09:50:50;;;;;;;50.75;22.35;;;6.70;99.90;;;;;;5045122;28;20055;-66
2022/11/30 09:53:39;;;;;;;41.60;20.90;;;6.70;99.90;;;;;;5036454;28;20037;-66
2022/11/30 09:56:24;;;;;;;45.45;21.02;;;6.50;99.90;;;;;;5035028;28;20549;-66
2022/11/30 09:58:54;;;;;;;39.03;19.60;;;;;;;;;;5053337;28;20029;-66
2022/11/30 10:01:20;;;;;;;36.95;19.55;;;;;;;;;;5034931;28;20041;-65
2022/11/30 10:03:46;;;;;;;42.78;22.17;;;6.80;99.90;;;;;;5035279;28;20091;-65
2022/11/30 10:06:36;;;;;;;44.92;20.58;;;6.60;99.90;;;;;;5035082;28;20121;-65
2022/11/30 10:09:33;;;;;;;40.00;20.98;;;6.80;99.90;;;;;;5037348;28;20484;-65
2022/11/30 10:12:03;;;;;;;41.47;20.85;;;;;;;;;;5047852;28;20136;-66
2022/11/30 10:14:50;;;;;;;39.13;19.00;;;6.80;99.90;;;;;;5041245;28;20053;-66
2022/11/30 10:17:32;;;;;;;39.13;21.15;;;;;;;;;;5038060;28;20399;-65
2022/11/30 10:20:36;;;;;;;36.90;19.25;;;6.70;99.90;;;;;;5041249;28;20048;-66
2022/11/30 10:23:28;;;;;;;42.38;21.17;;;7.00;99.90;;;;;;5020511;28;20053;-65
2022/11/30 10:26:04;;;;;;;42.33;21.33;;;7.00;99.90;;;;;;5040996;28;20037;-65
2022/11/30 10:28:46;;;;;;;39.10;20.80;;;6.90;99.90;;;;;;5036152;28;20037;-65
2022/11/30 10:31:13;;;;;;;43.40;21.08;;;6.90;99.90;;;;;;5034443;28;20068;-66
2022/11/30 10:33:46;;;;;;;41.88;21.25;;;7.10;99.90;;;;;;5033704;28;20568;-66
2022/11/30 10:36:14;;;;;;;41.05;20.05;;;;;;;;;;5035462;28;20087;-65
2022/11/30 10:38:45;;;;;;;38.63;22.38;;;6.90;99.90;;;;;;5043030;28;20034;-65
2022/11/30 10:41:15;;;;;;;36.80;18.90;;;7.00;99.90;;;;;;5034298;28;20041;-65
2022/11/30 10:43:50;;;;;;;37.13;22.13;;;7.00;99.90;;;;;;5038532;28;20052;-65
2022/11/30 10:46:35;;;;;;;45.45;21.48;;;7.00;99.90;;;;;;5034038;28;20045;-66
2022/11/30 10:49:06;;;;;;;38.83;20.27;;;6.90;99.90;;;;;;5035393;28;20038;-65
2022/11/30 10:51:36;;;;;;;34.85;18.85;;;7.00;99.90;;;;;;5035527;28;20116;-65
2022/11/30 10:54:09;;;;;;;41.22;20.42;;;7.00;99.90;;;;;;5043870;28;20041;-64
2022/11/30 10:56:35;;;;;;;39.30;21.13;;;7.00;99.90;;;;;;5034252;28;20395;-64
2022/11/30 10:59:27;;;;;;;41.78;21.42;;;7.00;99.90;;;;;;5034150;28;20047;-64
2022/11/30 11:01:53;;;;;;;35.28;20.55;;;7.00;99.90;;;;;;5032823;28;21104;-64
2022/11/30 11:04:21;;;;;;;40.97;21.60;;;7.10;99.90;;;;;;5033842;28;20049;-64
2022/11/30 11:07:12;;;;;;;40.85;21.05;;;6.90;99.90;;;;;;5045525;28;20040;-64
2022/11/30 11:09:39;;;;;;;41.78;22.48;;;7.20;99.90;;;;;;5042195;28;20052;-64
2022/11/30 11:12:17;;;;;;;39.63;21.05;;;7.10;99.90;;;;;;5034960;28;20083;-64
2022/11/30 11:14:43;;;;;;;42.85;21.83;;;7.20;99.90;;;;;;5048766;28;20381;-64
2022/11/30 11:17:18;;;;;;;39.47;21.25;;;7.30;99.90;;;;;;5033574;28;20084;-64
2022/11/30 11:19:46;;;;;;;38.35;21.75;;;7.30;99.90;;;;;;5037193;28;20081;-64
2022/11/30 11:22:17;;;;;;;40.70;20.85;;;7.20;99.90;;;;;;5035126;28;20044;-64
2022/11/30 11:24:44;;;;;;;41.25;22.30;;;7.30;99.90;;;;;;5034626;28;20103;-64
2022/11/30 11:27:28;;;;;;;38.70;21.08;;;7.20;99.90;;;;;;5034668;28;20042;-64
2022/11/30 11:30:06;;;;;;;37.13;20.35;;;7.30;99.90;;;;;;5034831;28;20037;-64
2022/11/30 11:32:32;;;;;;;39.45;21.17;;;7.30;99.90;;;;;;5033274;28;20056;-64
2022/11/30 11:34:59;;;;;;;39.05;20.98;;;;;;;;;;5043722;28;20049;-64
2022/11/30 11:37:32;;;;;;;42.55;22.80;;;7.30;99.90;;;;;;5050369;28;20068;-64
2022/11/30 11:40:03;;;;;;;41.28;21.17;;;7.40;99.90;;;;;;5041775;28;20052;-64
2022/11/30 11:42:40;;;;;;;37.00;21.75;;;7.50;99.90;;;;;;5052815;28;20041;-64
2022/11/30 11:45:27;;;;;;;42.17;22.15;;;7.40;99.90;;;;;;5049072;28;20091;-64
2022/11/30 11:48:03;;;;;;;41.17;21.55;;;7.40;99.90;;;;;;5045394;28;20045;-64
2022/11/30 11:50:35;;;;;;;41.00;21.63;;;7.20;99.90;;;;;;5047134;28;20045;-64
2022/11/30 11:53:13;;;;;;;39.80;21.80;;;7.30;99.90;;;;;;5048735;28;20044;-64
2022/11/30 11:55:41;;;;;;;40.22;22.05;;;7.40;99.90;;;;;;5050841;28;20482;-64
2022/11/30 11:58:15;;;;;;;41.00;21.27;;;7.30;99.90;;;;;;5049835;28;20033;-64
2022/11/30 12:00:41;;;;;;;39.28;21.00;;;;;;;;;;5052013;28;20400;-64
2022/11/30 12:03:32;;;;;;;42.97;23.05;;;7.60;99.90;;;;;;5051651;28;20051;-64
2022/11/30 12:06:08;;;;;;;37.35;20.95;;;7.30;99.90;;;;;;5030731;28;20044;-64
2022/11/30 12:08:59;;;;;;;39.72;21.25;;;7.40;99.90;;;;;;5048297;28;20048;-64
2022/11/30 12:11:46;;;;;;;41.75;20.67;;;7.40;99.90;;;;;;5047000;28;20128;-64
2022/11/30 12:14:13;;;;;;;37.83;21.40;;;;;;;;;;5050352;28;20044;-64
2022/11/30 12:17:17;;;;;;;41.50;22.30;;;7.20;99.90;;;;;;5050744;28;20116;-64
2022/11/30 12:19:52;;;;;;;42.33;21.90;;;7.40;99.90;;;;;;5043550;28;20037;-64
2022/11/30 12:22:20;;;;;;;40.47;21.65;;;;;;;;;;5049048;28;20118;-64
2022/11/30 12:24:47;;;;;;;43.13;22.67;;;;;;;;;;5047726;28;20286;-64
2022/11/30 12:27:21;;;;;;;39.97;21.58;;;7.30;99.90;;;;;;5050729;28;20091;-64
2022/11/30 12:30:14;;;;;;;39.97;21.70;;;7.40;99.90;;;;;;5043175;28;20044;-65
2022/11/30 12:33:02;;;;;;;39.95;22.30;;;7.40;99.90;;;;;;5036537;28;20041;-65
2022/11/30 12:35:54;;;;;;;44.08;23.90;;;7.30;99.90;;;;;;5053665;28;20079;-65
2022/11/30 12:38:42;;;;;;;41.65;23.27;;;7.40;99.90;;;;;;5057474;28;20052;-66
2022/11/30 12:41:32;;;;;;;45.85;24.08;;;7.50;99.90;;;;;;5053383;28;20033;-66
2022/11/30 12:44:21;;;;;;;42.72;25.10;;;7.30;99.90;;;;;;5049435;28;20048;-64
2022/11/30 12:47:17;;;;;;;47.17;25.65;;;7.30;99.90;;;;;;5051327;28;20120;-65
2022/11/30 12:50:04;;;;;;;45.78;24.70;;;7.30;99.90;;;;;;5049425;28;20052;-66
2022/11/30 12:52:39;;;;;;;43.92;25.60;;;7.20;99.90;;;;;;5048483;28;20094;-65
2022/11/30 12:55:31;;;;;;;45.70;25.67;;;7.30;99.90;;;;;;5050466;28;20051;-65
2022/11/30 12:58:08;;;;;;;44.38;25.55;;;;;;;;;;5051568;28;20056;-65
2022/11/30 13:00:50;;;;;;;48.80;25.45;;;7.40;99.90;;;;;;5052375;28;20523;-64
2022/11/30 13:03:41;;;;;;;44.95;24.45;;;7.20;99.90;;;;;;5049203;28;20055;-65